createdAt,value
2019-04-03T00:02:12.909Z,98936.28
2019-04-03T00:05:04.608Z,98944.89
2019-04-03T00:08:08.131Z,98947.63
2019-04-03T00:10:58.508Z,98943.03
2019-04-03T00:13:42.451Z,98938.81
2019-04-03T00:16:33.012Z,98940.06
2019-04-03T00:19:17.639Z,98940.72
2019-04-03T00:22:07.925Z,98946.16
2019-04-03T00:24:50.632Z,98947.97
2019-04-03T00:27:42.602Z,98947.22
2019-04-03T00:30:25.877Z,98946.84
2019-04-03T00:33:16.251Z,98937.81
2019-04-03T00:35:58.988Z,98936.70
2019-04-03T00:38:49.347Z,98933.00
2019-04-03T00:41:32.396Z,98921.25
2019-04-03T00:44:24.239Z,98928.81
2019-04-03T00:47:27.856Z,98925.98
2019-04-03T00:50:18.237Z,98914.53
2019-04-03T00:53:01.478Z,98912.59
2019-04-03T00:55:51.848Z,98915.96
2019-04-03T00:59:01.689Z,98929.33
2019-04-03T01:01:52.113Z,98920.66
2019-04-03T01:04:35.681Z,98918.41
2019-04-03T01:07:26.065Z,98918.70
2019-04-03T01:10:09.274Z,98919.17
2019-04-03T01:13:00.026Z,98916.18
2019-04-03T01:16:04.018Z,98913.91
2019-04-03T01:18:54.355Z,98920.77
2019-04-03T01:21:37.763Z,98921.16
2019-04-03T01:24:28.124Z,98918.70
2019-04-03T01:27:18.633Z,98925.84
2019-04-03T01:30:09.362Z,98923.39
2019-04-03T01:32:52.232Z,98929.22
2019-04-03T01:35:42.585Z,98931.67
2019-04-03T01:38:26.181Z,98925.95
2019-04-03T01:41:09.455Z,98926.52
2019-04-03T01:43:59.810Z,98934.12
2019-04-03T01:47:02.808Z,98929.78
2019-04-03T01:49:53.156Z,98931.20
2019-04-03T01:52:36.763Z,98928.75
2019-04-03T01:55:27.163Z,98918.98
2019-04-03T01:58:10.706Z,98929.89
2019-04-03T02:01:01.116Z,98931.77
2019-04-03T02:03:51.487Z,98930.06
2019-04-03T02:06:43.677Z,98941.98
2019-04-03T02:09:47.214Z,98936.66
2019-04-03T02:12:37.631Z,98938.98
2019-04-03T02:15:21.579Z,98939.45
2019-04-03T02:18:12.492Z,98936.53
2019-04-03T02:20:57.333Z,98936.31
2019-04-03T02:23:47.398Z,98935.39
2019-04-03T02:26:30.754Z,98936.05
2019-04-03T02:29:21.957Z,98930.05
2019-04-03T02:32:05.125Z,98932.58
2019-04-03T02:34:55.545Z,98927.34
2019-04-03T02:37:38.369Z,98932.58
2019-04-03T02:40:21.380Z,98930.78
2019-04-03T02:43:14.195Z,98930.12
2019-04-03T02:46:16.329Z,98922.44
2019-04-03T02:49:09.056Z,98919.11
2019-04-03T02:52:11.252Z,98922.51
2019-04-03T02:57:55.265Z,98924.27
2019-04-03T03:00:45.573Z,98925.13
2019-04-03T03:03:35.968Z,98918.27
2019-04-03T03:06:18.986Z,98915.71
2019-04-03T03:09:12.993Z,98921.55
2019-04-03T03:12:13.677Z,98923.32
2019-04-03T03:18:32.988Z,98920.96
2019-04-03T03:24:52.173Z,98910.00
2019-04-03T03:31:11.866Z,98892.00
2019-04-03T03:37:34.094Z,98896.77
2019-04-03T03:40:17.186Z,98905.05
2019-04-03T03:43:07.747Z,98910.25
2019-04-03T03:49:26.898Z,98904.66
2019-04-03T03:52:10.026Z,98903.25
2019-04-03T03:58:29.687Z,98909.03
2019-04-03T04:04:49.443Z,98907.26
2019-04-03T04:07:40.143Z,98908.64
2019-04-03T04:10:35.021Z,98907.89
2019-04-03T04:13:35.863Z,98903.56
2019-04-03T04:19:55.309Z,98897.75
2019-04-03T04:22:49.050Z,98888.48
2019-04-03T04:25:50.915Z,98886.50
2019-04-03T04:32:10.097Z,98880.50
2019-04-03T04:35:00.454Z,98873.28
2019-04-03T04:37:50.841Z,98870.66
2019-04-03T04:40:33.708Z,98873.22
2019-04-03T04:43:24.244Z,98878.01
2019-04-03T04:46:09.171Z,98878.01
2019-04-03T04:48:58.995Z,98872.37
2019-04-03T04:51:42.676Z,98871.80
2019-04-03T04:54:25.436Z,98876.20
2019-04-03T04:57:15.764Z,98876.89
2019-04-03T04:59:58.582Z,98886.28
2019-04-03T05:02:51.145Z,98882.91
2019-04-03T05:05:53.872Z,98882.42
2019-04-03T05:08:44.209Z,98888.97
2019-04-03T05:11:27.130Z,98881.98
2019-04-03T05:14:18.253Z,98881.52
2019-04-03T05:17:22.515Z,98886.97
2019-04-03T05:20:12.906Z,98894.58
2019-04-03T05:22:56.803Z,98889.43
2019-04-03T05:25:40.139Z,98890.64
2019-04-03T05:28:30.467Z,98886.64
2019-04-03T05:31:13.254Z,98889.63
2019-04-03T05:34:03.615Z,98890.90
2019-04-03T05:36:46.845Z,98892.18
2019-04-03T05:39:38.228Z,98894.38
2019-04-03T05:42:21.659Z,98891.00
2019-04-03T05:45:12.270Z,98892.41
2019-04-03T05:48:17.758Z,98896.22
2019-04-03T05:51:01.106Z,98897.72
2019-04-03T05:53:53.820Z,98899.98
2019-04-03T05:56:55.605Z,98891.47
2019-04-03T05:59:58.214Z,98894.05
2019-04-03T06:02:52.570Z,98896.12
2019-04-03T06:05:43.950Z,98897.03
2019-04-03T06:08:47.461Z,98889.89
2019-04-03T06:11:40.225Z,98889.92
2019-04-03T06:14:42.381Z,98893.63
2019-04-03T06:17:32.719Z,98895.00
2019-04-03T06:20:15.530Z,98903.43
2019-04-03T06:23:05.862Z,98904.19
2019-04-03T06:26:09.149Z,98897.23
2019-04-03T06:28:59.816Z,98897.92
2019-04-03T06:32:05.802Z,98895.66
2019-04-03T06:34:56.239Z,98901.14
2019-04-03T06:37:39.722Z,98896.52
2019-04-03T06:40:30.107Z,98895.00
2019-04-03T06:43:13.462Z,98894.19
2019-04-03T06:46:03.840Z,98895.59
2019-04-03T06:48:47.103Z,98897.10
2019-04-03T06:51:37.467Z,98896.91
2019-04-03T06:54:20.504Z,98904.58
2019-04-03T06:57:11.805Z,98908.61
2019-04-03T07:00:15.665Z,98910.02
2019-04-03T07:03:06.279Z,98907.40
2019-04-03T07:06:11.522Z,98917.33
2019-04-03T07:09:05.186Z,98920.88
2019-04-03T07:12:07.550Z,98925.83
2019-04-03T07:14:57.896Z,98930.12
2019-04-03T07:17:41.445Z,98933.20
2019-04-03T07:20:31.842Z,98934.80
2019-04-03T07:23:14.940Z,98928.80
2019-04-03T07:26:05.642Z,98935.20
2019-04-03T07:29:12.195Z,98934.94
2019-04-03T07:32:02.127Z,98940.75
2019-04-03T07:35:10.161Z,98942.85
2019-04-03T07:37:59.118Z,98938.27
2019-04-03T07:40:42.073Z,98941.73
2019-04-03T07:43:26.838Z,98939.02
2019-04-03T07:46:17.580Z,98939.88
2019-04-03T07:49:00.738Z,98934.86
2019-04-03T07:51:51.367Z,98939.55
2019-04-03T07:54:34.125Z,98934.95
2019-04-03T07:57:24.493Z,98936.49
2019-04-03T08:00:07.763Z,98939.77
2019-04-03T08:02:58.118Z,98936.59
2019-04-03T08:05:41.485Z,98933.05
2019-04-03T08:08:31.861Z,98931.77
2019-04-03T08:11:15.355Z,98937.76
2019-04-03T08:13:59.058Z,98935.74
2019-04-03T08:16:49.698Z,98932.20
2019-04-03T08:19:55.154Z,98932.67
2019-04-03T08:22:45.629Z,98936.31
2019-04-03T08:25:28.682Z,98939.89
2019-04-03T08:28:19.154Z,98942.34
2019-04-03T08:31:02.181Z,98941.19
2019-04-03T08:33:53.125Z,98929.00
2019-04-03T08:36:38.398Z,98925.61
2019-04-03T08:39:28.482Z,98923.73
2019-04-03T08:42:18.827Z,98927.77
2019-04-03T08:45:01.842Z,98926.92
2019-04-03T08:47:52.336Z,98914.42
2019-04-03T08:50:35.566Z,98920.45
2019-04-03T08:53:25.917Z,98922.91
2019-04-03T08:56:09.257Z,98930.20
2019-04-03T08:58:59.590Z,98923.55
2019-04-03T09:01:42.851Z,98922.56
2019-04-03T09:04:33.214Z,98928.96
2019-04-03T09:07:15.944Z,98926.36
2019-04-03T09:10:07.636Z,98923.27
2019-04-03T09:13:17.642Z,98919.91
2019-04-03T09:16:04.464Z,98910.61
2019-04-03T09:18:47.871Z,98911.92
2019-04-03T09:21:38.243Z,98907.53
2019-04-03T09:24:21.704Z,98894.96
2019-04-03T09:27:12.061Z,98887.84
2019-04-03T09:29:55.176Z,98876.18
2019-04-03T09:32:45.573Z,98887.34
2019-04-03T09:35:29.063Z,98888.87
2019-04-03T09:38:19.638Z,98907.64
2019-04-03T09:41:02.931Z,98913.16
2019-04-03T09:43:45.626Z,98901.89
2019-04-03T09:46:35.987Z,98905.92
2019-04-03T09:49:26.656Z,98907.42
2019-04-03T09:52:39.537Z,98907.52
2019-04-03T09:55:22.842Z,98907.80
2019-04-03T09:58:05.777Z,98914.46
2019-04-03T10:00:56.252Z,98921.03
2019-04-03T10:03:39.446Z,98926.18
2019-04-03T10:06:30.687Z,98916.31
2019-04-03T10:09:34.512Z,98915.21
2019-04-03T10:12:24.938Z,98903.58
2019-04-03T10:15:08.076Z,98905.19
2019-04-03T10:17:58.798Z,98896.91
2019-04-03T10:21:03.682Z,98902.09
2019-04-03T10:23:54.059Z,98895.36
2019-04-03T10:26:39.273Z,98899.12
2019-04-03T10:29:28.823Z,98881.47
2019-04-03T10:32:12.712Z,98885.31
2019-04-03T10:34:57.350Z,98876.86
2019-04-03T10:37:47.652Z,98881.37
2019-04-03T10:40:30.431Z,98872.98
2019-04-03T10:43:13.316Z,98880.02
2019-04-03T10:46:03.987Z,98860.52
2019-04-03T10:49:08.409Z,98867.38
2019-04-03T10:51:58.944Z,98869.44
2019-04-03T10:54:41.991Z,98866.30
2019-04-03T10:57:34.287Z,98854.28
2019-04-03T11:00:36.557Z,98848.50
2019-04-03T11:03:26.925Z,98851.39
2019-04-03T11:06:09.868Z,98856.63
2019-04-03T11:09:00.244Z,98845.45
2019-04-03T11:11:44.162Z,98841.64
2019-04-03T11:14:34.559Z,98848.63
2019-04-03T11:17:18.152Z,98859.59
2019-04-03T11:23:06.378Z,98850.09
2019-04-03T11:25:54.138Z,98840.88
2019-04-03T11:28:44.777Z,98826.86
2019-04-03T11:31:49.284Z,98818.30
2019-04-03T11:34:39.622Z,98814.05
2019-04-03T11:37:22.173Z,98797.61
2019-04-03T11:43:42.089Z,98802.44
2019-04-03T11:46:32.452Z,98804.67
2019-04-03T11:49:23.190Z,98799.67
2019-04-03T11:52:26.919Z,98803.93
2019-04-03T11:55:17.810Z,98793.09
2019-04-03T11:58:22.535Z,98808.05
2019-04-03T12:04:22.619Z,98813.13
2019-04-03T12:07:13.017Z,98811.72
2019-04-03T12:09:56.389Z,98810.28
2019-04-03T12:12:47.008Z,98797.25
2019-04-03T12:15:29.191Z,98791.86
2019-04-03T12:18:10.911Z,98779.47
2019-04-03T12:20:53.720Z,98769.43
2019-04-03T12:23:44.286Z,98770.38
2019-04-03T12:26:27.846Z,98772.67
2019-04-03T12:29:19.058Z,98767.64
2019-04-03T12:32:36.148Z,98765.21
2019-04-03T12:35:09.717Z,98766.01
2019-04-03T12:38:00.456Z,98773.95
2019-04-03T12:41:05.367Z,98784.16
2019-04-03T12:43:55.932Z,98790.80
2019-04-03T12:46:41.078Z,98783.48
2019-04-03T12:49:31.414Z,98796.69
2019-04-03T12:52:14.171Z,98789.63
2019-04-03T12:55:05.063Z,98783.27
2019-04-03T12:57:47.579Z,98772.34
2019-04-03T13:00:38.012Z,98774.86
2019-04-03T13:03:23.605Z,98770.23
2019-04-03T13:06:13.379Z,98782.04
2019-04-03T13:09:17.476Z,98782.77
2019-04-03T13:12:08.116Z,98774.44
2019-04-03T13:14:51.775Z,98773.83
2019-04-03T13:17:43.755Z,98765.22
2019-04-03T13:20:47.704Z,98762.78
2019-04-03T13:23:38.060Z,98751.40
2019-04-03T13:26:24.055Z,98753.05
2019-04-03T13:29:12.612Z,98741.84
2019-04-03T13:31:55.233Z,98727.56
2019-04-03T13:34:46.016Z,98722.98
2019-04-03T13:37:50.706Z,98714.81
2019-04-03T13:40:41.750Z,98719.14
2019-04-03T13:43:25.177Z,98726.44
2019-04-03T13:46:15.568Z,98716.77
2019-04-03T13:48:58.781Z,98719.78
2019-04-03T13:51:49.137Z,98706.76
2019-04-03T13:54:32.587Z,98712.57
2019-04-03T13:57:22.997Z,98705.32
2019-04-03T14:00:17.161Z,98713.87
2019-04-03T14:02:58.725Z,98718.78
2019-04-03T14:05:43.355Z,98714.89
2019-04-03T14:08:34.207Z,98714.41
2019-04-03T14:11:17.340Z,98725.09
2019-04-03T14:14:07.737Z,98721.59
2019-04-03T14:16:51.420Z,98722.19
2019-04-03T14:19:45.859Z,98714.75
2019-04-03T14:22:46.625Z,98711.63
2019-04-03T14:25:38.561Z,98700.68
2019-04-03T14:28:42.129Z,98692.45
2019-04-03T14:31:36.024Z,98690.64
2019-04-03T14:34:39.590Z,98689.59
2019-04-03T14:37:29.572Z,98695.12
2019-04-03T14:40:13.032Z,98692.72
2019-04-03T14:43:04.045Z,98697.41
2019-04-03T14:45:47.327Z,98700.47
2019-04-03T14:48:37.628Z,98696.83
2019-04-03T14:51:20.958Z,98697.02
2019-04-03T14:54:11.312Z,98709.86
2019-04-03T14:56:54.028Z,98715.34
2019-04-03T14:59:37.543Z,98714.01
2019-04-03T15:02:27.923Z,98722.39
2019-04-03T15:05:10.898Z,98717.38
2019-04-03T15:08:01.345Z,98720.98
2019-04-03T15:10:44.086Z,98722.45
2019-04-03T15:13:34.494Z,98714.01
2019-04-03T15:16:17.421Z,98699.72
2019-04-03T15:19:07.875Z,98695.70
2019-04-03T15:22:12.130Z,98691.11
2019-04-03T15:25:03.019Z,98686.29
2019-04-03T15:28:07.193Z,98687.02
2019-04-03T15:30:57.572Z,98675.66
2019-04-03T15:33:41.257Z,98676.98
2019-04-03T15:36:34.914Z,98674.48
2019-04-03T15:39:35.866Z,98686.53
2019-04-03T15:42:26.244Z,98700.05
2019-04-03T15:45:09.405Z,98702.34
2019-04-03T15:47:59.769Z,98700.78
2019-04-03T15:50:43.221Z,98704.66
2019-04-03T15:53:33.581Z,98712.09
2019-04-03T15:56:16.864Z,98714.25
2019-04-03T15:59:07.393Z,98709.91
2019-04-03T16:01:50.137Z,98710.45
2019-04-03T16:04:40.788Z,98710.69
2019-04-03T16:07:45.282Z,98708.38
2019-04-03T16:10:36.157Z,98706.80
2019-04-03T16:13:39.983Z,98703.49
2019-04-03T16:16:30.473Z,98696.55
2019-04-03T16:19:13.959Z,98688.34
2019-04-03T16:22:04.818Z,98686.11
2019-04-03T16:25:09.209Z,98684.53
2019-04-03T16:27:52.607Z,98692.75
2019-04-03T16:30:43.006Z,98677.48
2019-04-03T16:33:25.751Z,98682.92
2019-04-03T16:36:17.105Z,98683.16
2019-04-03T16:39:20.611Z,98671.80
2019-04-03T16:42:11.044Z,98674.76
2019-04-03T16:45:14.375Z,98670.95
2019-04-03T16:48:05.376Z,98671.71
2019-04-03T16:51:10.023Z,98677.91
2019-04-03T16:54:00.834Z,98678.20
2019-04-03T16:57:04.853Z,98685.57
2019-04-03T16:59:55.420Z,98684.77
2019-04-03T17:02:58.461Z,98682.00
2019-04-03T17:05:41.501Z,98674.89
2019-04-03T17:08:33.116Z,98668.36
2019-04-03T17:11:15.824Z,98667.54
2019-04-03T17:14:06.275Z,98660.34
2019-04-03T17:16:49.587Z,98650.79
2019-04-03T17:19:40.311Z,98658.48
2019-04-03T17:22:23.588Z,98666.91
2019-04-03T17:25:14.148Z,98673.83
2019-04-03T17:27:58.933Z,98682.09
2019-04-03T17:30:51.304Z,98684.50
2019-04-03T17:33:53.627Z,98696.95
2019-04-03T17:36:44.266Z,98696.63
2019-04-03T17:39:27.286Z,98705.45
2019-04-03T17:42:17.619Z,98719.15
2019-04-03T17:45:01.050Z,98717.16
2019-04-03T17:47:53.868Z,98716.13
2019-04-03T17:50:56.458Z,98709.03
2019-04-03T17:53:46.824Z,98702.23
2019-04-03T17:56:30.408Z,98695.27
2019-04-03T17:59:20.787Z,98688.79
2019-04-03T18:02:03.697Z,98685.23
2019-04-03T18:04:54.068Z,98692.45
2019-04-03T18:07:37.227Z,98706.47
2019-04-03T18:10:27.604Z,98715.56
2019-04-03T18:13:10.838Z,98727.52
2019-04-03T18:16:01.213Z,98740.73
2019-04-03T18:18:43.902Z,98747.45
2019-04-03T18:21:26.644Z,98743.45
2019-04-03T18:24:17.039Z,98737.91
2019-04-03T18:27:02.334Z,98731.91
2019-04-03T18:30:07.156Z,98719.09
2019-04-03T18:32:57.519Z,98700.55
2019-04-03T18:35:40.365Z,98700.13
2019-04-03T18:38:30.706Z,98687.00
2019-04-03T18:41:15.000Z,98679.61
2019-04-03T18:44:05.942Z,98695.53
2019-04-03T18:46:50.256Z,98707.78
2019-04-03T18:49:40.687Z,98716.67
2019-04-03T18:52:23.461Z,98713.39
2019-04-03T18:55:14.710Z,98707.57
2019-04-03T18:58:18.342Z,98709.08
2019-04-03T19:01:08.746Z,98715.90
2019-04-03T19:03:51.569Z,98731.69
2019-04-03T19:06:42.961Z,98742.66
2019-04-03T19:09:47.111Z,98739.91
2019-04-03T19:12:37.529Z,98756.84
2019-04-03T19:15:20.320Z,98765.20
2019-04-03T19:18:17.909Z,98764.71
2019-04-03T19:20:55.371Z,98754.23
2019-04-03T19:23:49.180Z,98756.65
2019-04-03T19:26:31.670Z,98762.84
2019-04-03T19:29:35.794Z,98765.46
2019-04-03T19:32:26.678Z,98758.42
2019-04-03T19:35:10.154Z,98755.89
2019-04-03T19:38:00.556Z,98752.45
2019-04-03T19:40:43.757Z,98758.22
2019-04-03T19:43:34.116Z,98753.73
2019-04-03T19:46:16.994Z,98739.33
2019-04-03T19:49:07.441Z,98737.29
2019-04-03T19:51:50.861Z,98737.59
2019-04-03T19:54:41.269Z,98751.41
2019-04-03T19:57:24.923Z,98755.34
2019-04-03T20:00:16.334Z,98760.28
2019-04-03T20:02:59.282Z,98761.70
2019-04-03T20:05:50.770Z,98754.64
2019-04-03T20:08:54.508Z,98759.13
2019-04-03T20:11:44.866Z,98747.50
2019-04-03T20:14:28.281Z,98752.68
2019-04-03T20:17:10.920Z,98756.17
2019-04-03T20:20:01.295Z,98762.01
2019-04-03T20:22:44.766Z,98756.57
2019-04-03T20:25:35.258Z,98754.70
2019-04-03T20:28:18.271Z,98759.98
2019-04-03T20:31:08.883Z,98750.38
2019-04-03T20:33:51.780Z,98749.92
2019-04-03T20:36:42.149Z,98746.00
2019-04-03T20:39:24.748Z,98737.23
2019-04-03T20:42:15.189Z,98722.48
2019-04-03T20:44:57.889Z,98719.10
2019-04-03T20:47:48.251Z,98711.34
2019-04-03T20:50:31.574Z,98719.96
2019-04-03T20:53:21.939Z,98721.01
2019-04-03T20:56:04.844Z,98709.16
2019-04-03T21:02:03.614Z,98710.63
2019-04-03T21:04:54.051Z,98703.68
2019-04-03T21:07:57.160Z,98706.27
2019-04-03T21:10:47.536Z,98714.72
2019-04-03T21:13:30.547Z,98719.10
2019-04-03T21:16:32.560Z,98710.09
2019-04-03T21:19:25.366Z,98713.11
2019-04-03T21:22:15.717Z,98714.52
2019-04-03T21:24:59.168Z,98704.99
2019-04-03T21:27:49.541Z,98694.32
2019-04-03T21:30:32.813Z,98679.94
2019-04-03T21:33:23.186Z,98672.83
2019-04-03T21:36:07.041Z,98669.45
2019-04-03T21:38:58.757Z,98663.73
2019-04-03T21:41:49.136Z,98675.75
2019-04-03T21:44:32.547Z,98679.42
2019-04-03T21:47:22.918Z,98692.03
2019-04-03T21:50:05.950Z,98686.76
2019-04-03T21:52:56.315Z,98679.75
2019-04-03T21:55:38.999Z,98674.87
2019-04-03T21:58:29.331Z,98679.81
2019-04-03T22:04:47.995Z,98666.26
2019-04-03T22:07:38.374Z,98671.86
2019-04-03T22:10:28.751Z,98687.93
2019-04-03T22:13:11.393Z,98695.69
2019-04-03T22:16:01.827Z,98702.33
2019-04-03T22:18:45.921Z,98702.84
2019-04-03T22:21:28.709Z,98702.55
2019-04-03T22:24:00.022Z,98694.89
2019-04-03T22:26:42.947Z,98697.91
2019-04-03T22:29:33.339Z,98713.98
2019-04-03T22:32:16.095Z,98720.67
2019-04-03T22:38:37.243Z,98719.48
2019-04-03T22:41:27.994Z,98734.78
2019-04-03T22:44:18.386Z,98736.23
2019-04-03T22:47:01.530Z,98739.66
2019-04-03T22:49:51.896Z,98730.14
2019-04-03T22:52:34.967Z,98705.93
2019-04-03T22:55:25.367Z,98701.84
2019-04-03T22:58:07.918Z,98697.77
2019-04-03T23:00:59.199Z,98704.83
2019-04-03T23:04:05.331Z,98710.25
2019-04-03T23:06:55.308Z,98713.23
2019-04-03T23:09:38.801Z,98718.56
2019-04-03T23:12:29.202Z,98715.09
2019-04-03T23:15:12.640Z,98712.92
2019-04-03T23:18:03.053Z,98694.95
2019-04-03T23:20:46.685Z,98689.81
2019-04-03T23:23:37.085Z,98713.08
2019-04-03T23:26:19.750Z,98699.98
2019-04-03T23:29:10.160Z,98696.31
2019-04-03T23:31:53.490Z,98677.94
2019-04-03T23:34:43.887Z,98673.47
2019-04-03T23:37:26.979Z,98676.13
2019-04-03T23:40:17.387Z,98660.36
2019-04-03T23:43:00.316Z,98646.97
2019-04-03T23:45:50.688Z,98664.14
2019-04-03T23:48:33.384Z,98666.66
2019-04-03T23:51:27.043Z,98638.55
2019-04-03T23:54:28.232Z,98639.38
2019-04-03T23:57:18.643Z,98658.41
